createdAt,value
2023-02-08T00:00:16.615Z,65.15
2023-02-08T00:05:18.780Z,65.66
2023-02-08T00:10:20.492Z,65.22
2023-02-08T00:15:22.500Z,65.42
2023-02-08T00:20:24.166Z,65.49
2023-02-08T00:25:25.813Z,65.40
2023-02-08T00:30:27.735Z,66.05
2023-02-08T00:35:29.714Z,65.88
2023-02-08T00:40:31.775Z,66.38
2023-02-08T00:45:34.099Z,66.17
2023-02-08T00:50:35.790Z,65.93
2023-02-08T00:55:38.074Z,66.53
2023-02-08T01:00:40.094Z,66.17
2023-02-08T01:05:42.090Z,66.54
2023-02-08T01:10:44.709Z,66.59
2023-02-08T01:15:46.386Z,66.74
2023-02-08T01:20:48.062Z,66.86
2023-02-08T01:25:49.716Z,66.49
2023-02-08T01:30:52.272Z,66.81
2023-02-08T01:35:54.037Z,66.86
2023-02-08T01:40:55.704Z,67.33
2023-02-08T01:45:57.801Z,67.10
2023-02-08T01:51:10.685Z,66.96
2023-02-08T01:56:19.635Z,67.53
2023-02-08T02:01:21.833Z,66.81
2023-02-08T02:06:33.100Z,67.31
2023-02-08T02:11:34.966Z,66.88
2023-02-08T02:16:37.057Z,67.33
2023-02-08T02:21:54.100Z,67.17
2023-02-08T02:27:24.792Z,66.81
2023-02-08T02:32:38.550Z,66.99
2023-02-08T02:37:43.784Z,67.17
2023-02-08T02:43:17.174Z,67.00
2023-02-08T02:48:26.184Z,67.00
2023-02-08T02:53:56.471Z,67.23
2023-02-08T02:59:04.102Z,66.76
2023-02-08T03:04:40.163Z,67.33
2023-02-08T03:10:07.696Z,67.17
2023-02-08T03:15:29.978Z,67.24
2023-02-08T03:20:53.620Z,66.88
2023-02-08T03:26:21.003Z,66.98
2023-02-08T03:31:43.269Z,66.89
2023-02-08T03:36:53.288Z,66.73
2023-02-08T03:42:07.036Z,67.06
2023-02-08T03:47:15.797Z,66.72
2023-02-08T03:52:18.950Z,66.84
2023-02-08T03:57:24.104Z,66.83
2023-02-08T04:02:29.660Z,66.09
2023-02-08T04:07:31.575Z,65.65
2023-02-08T04:12:33.222Z,65.87
2023-02-08T04:17:34.916Z,66.33
2023-02-08T04:22:36.769Z,66.46
2023-02-08T04:27:38.632Z,67.34
2023-02-08T04:32:40.310Z,67.15
2023-02-08T04:37:41.906Z,67.76
2023-02-08T04:42:43.625Z,67.11
2023-02-08T04:47:45.275Z,66.94
2023-02-08T04:52:46.911Z,67.43
2023-02-08T04:57:49.771Z,66.65
2023-02-08T05:02:55.839Z,67.12
2023-02-08T05:07:57.486Z,66.69
2023-02-08T05:12:59.853Z,66.75
2023-02-08T05:18:01.427Z,67.26
2023-02-08T05:23:03.055Z,67.07
2023-02-08T05:28:05.711Z,67.07
2023-02-08T05:33:07.531Z,67.19
2023-02-08T05:38:09.168Z,67.44
2023-02-08T05:43:10.834Z,67.48
2023-02-08T05:48:12.524Z,67.51
2023-02-08T05:53:14.359Z,67.70
2023-02-08T05:58:17.006Z,67.48
2023-02-08T06:03:18.693Z,67.57
2023-02-08T06:08:20.708Z,67.56
2023-02-08T06:13:22.392Z,67.89
2023-02-08T06:18:24.244Z,68.21
2023-02-08T06:23:26.240Z,68.95
2023-02-08T06:28:28.027Z,69.58
2023-02-08T06:33:30.268Z,68.50
2023-02-08T06:38:32.050Z,67.99
2023-02-08T06:43:33.843Z,67.15
2023-02-08T06:48:35.924Z,67.61
2023-02-08T06:53:37.783Z,66.98
2023-02-08T06:58:39.764Z,66.79
2023-02-08T07:03:42.038Z,66.86
2023-02-08T07:08:43.765Z,67.44
2023-02-08T07:13:52.107Z,67.27
2023-02-08T07:18:53.835Z,67.66
2023-02-08T07:23:55.471Z,67.32
2023-02-08T07:28:58.589Z,68.11
2023-02-08T07:34:00.383Z,68.67
2023-02-08T07:39:02.863Z,68.14
2023-02-08T07:44:04.805Z,68.30
2023-02-08T07:49:06.858Z,68.55
2023-02-08T07:54:08.597Z,68.19
2023-02-08T07:59:10.836Z,68.33
2023-02-08T08:04:12.721Z,68.61
2023-02-08T08:09:15.385Z,68.90
2023-02-08T08:14:17.218Z,68.92
2023-02-08T08:19:18.898Z,68.80
2023-02-08T08:24:20.596Z,68.89
2023-02-08T08:29:22.302Z,69.00
2023-02-08T08:34:29.704Z,68.71
2023-02-08T08:39:32.099Z,68.85
2023-02-08T08:44:33.872Z,68.75
2023-02-08T08:49:35.717Z,68.86
2023-02-08T08:54:37.396Z,68.49
2023-02-08T08:59:39.342Z,68.65
2023-02-08T09:04:41.536Z,68.45
2023-02-08T09:09:47.878Z,68.26
2023-02-08T09:14:49.523Z,68.08
2023-02-08T09:19:51.314Z,68.00
2023-02-08T09:24:53.856Z,67.89
2023-02-08T09:29:55.565Z,66.98
2023-02-08T09:34:57.740Z,67.20
2023-02-08T09:40:00.249Z,66.81
2023-02-08T09:45:02.256Z,67.07
2023-02-08T09:50:12.749Z,66.75
2023-02-08T09:55:49.799Z,66.33
2023-02-08T10:00:53.360Z,65.47
2023-02-08T10:05:55.409Z,65.35
2023-02-08T10:11:09.298Z,64.38
2023-02-08T10:16:23.753Z,64.39
2023-02-08T10:21:43.289Z,62.99
2023-02-08T10:27:01.373Z,62.88
2023-02-08T10:32:18.192Z,62.58
2023-02-08T10:37:27.698Z,62.62
2023-02-08T10:42:32.080Z,62.25
2023-02-08T10:47:44.168Z,61.69
2023-02-08T10:52:45.955Z,61.35
2023-02-08T10:57:50.037Z,61.16
2023-02-08T11:02:53.016Z,61.34
2023-02-08T11:08:14.063Z,61.62
2023-02-08T11:13:20.437Z,61.60
2023-02-08T11:18:37.908Z,61.21
2023-02-08T11:23:43.418Z,60.40
2023-02-08T11:29:18.516Z,60.40
2023-02-08T11:34:28.572Z,59.58
2023-02-08T11:39:35.306Z,59.65
2023-02-08T11:44:43.040Z,60.25
2023-02-08T11:49:56.257Z,59.36
2023-02-08T11:55:16.796Z,58.87
2023-02-08T12:00:21.419Z,58.88
2023-02-08T12:05:46.694Z,58.49
2023-02-08T12:11:14.895Z,57.79
2023-02-08T12:16:50.916Z,57.93
2023-02-08T12:22:07.956Z,56.88
2023-02-08T12:27:34.371Z,56.87
2023-02-08T12:32:46.707Z,57.02
2023-02-08T12:38:31.322Z,57.32
2023-02-08T12:43:51.762Z,56.94
2023-02-08T12:49:30.989Z,57.02
2023-02-08T12:55:06.325Z,56.34
2023-02-08T13:00:19.382Z,56.55
2023-02-08T13:05:22.936Z,55.64
2023-02-08T13:10:39.254Z,56.59
2023-02-08T13:16:10.167Z,56.35
2023-02-08T13:21:16.377Z,56.12
2023-02-08T13:26:28.026Z,55.66
2023-02-08T13:31:39.460Z,56.22
2023-02-08T13:36:51.389Z,55.82
2023-02-08T13:41:56.352Z,56.17
2023-02-08T13:46:58.501Z,55.97
2023-02-08T13:52:02.218Z,55.71
2023-02-08T13:57:25.852Z,56.16
2023-02-08T14:02:28.990Z,56.13
2023-02-08T14:07:42.295Z,55.90
2023-02-08T14:12:56.763Z,55.74
2023-02-08T14:18:00.654Z,55.99
2023-02-08T14:23:06.815Z,55.64
2023-02-08T14:28:35.723Z,55.99
2023-02-08T14:33:41.307Z,55.74
2023-02-08T14:38:53.725Z,55.53
2023-02-08T14:43:55.545Z,56.12
2023-02-08T14:48:57.808Z,56.23
2023-02-08T14:54:15.147Z,56.46
2023-02-08T14:59:20.762Z,56.21
2023-02-08T15:04:22.583Z,56.17
2023-02-08T15:09:30.125Z,56.01
2023-02-08T15:14:36.193Z,55.79
2023-02-08T15:19:39.404Z,55.80
2023-02-08T15:24:50.460Z,56.21
2023-02-08T15:29:52.521Z,56.03
2023-02-08T15:35:00.729Z,55.87
2023-02-08T15:40:04.606Z,55.92
2023-02-08T15:45:23.474Z,55.83
2023-02-08T15:50:27.750Z,55.87
2023-02-08T15:55:39.813Z,55.96
2023-02-08T16:00:43.432Z,55.77
2023-02-08T16:05:54.899Z,55.83
2023-02-08T16:10:59.442Z,56.23
2023-02-08T16:16:53.653Z,56.37
2023-02-08T16:22:14.610Z,56.68
2023-02-08T16:27:25.943Z,56.64
2023-02-08T16:32:33.470Z,56.85
2023-02-08T16:37:35.484Z,56.95
2023-02-08T16:42:42.637Z,57.14
2023-02-08T16:47:48.548Z,57.42
2023-02-08T16:52:58.978Z,57.44
2023-02-08T16:58:00.650Z,57.58
2023-02-08T17:03:02.429Z,57.71
2023-02-08T17:08:09.936Z,57.90
2023-02-08T17:13:21.023Z,58.66
2023-02-08T17:18:23.148Z,58.40
2023-02-08T17:23:25.414Z,58.40
2023-02-08T17:28:27.674Z,58.67
2023-02-08T17:33:29.377Z,59.00
2023-02-08T17:38:31.021Z,58.79
2023-02-08T17:43:32.974Z,59.45
2023-02-08T17:48:34.679Z,59.76
2023-02-08T17:53:40.853Z,60.08
2023-02-08T17:58:42.973Z,60.35
2023-02-08T18:03:45.686Z,60.40
2023-02-08T18:08:47.306Z,60.26
2023-02-08T18:13:51.556Z,60.56
2023-02-08T18:18:57.542Z,60.60
2023-02-08T18:24:04.829Z,60.75
2023-02-08T18:29:06.531Z,60.68
2023-02-08T18:34:08.129Z,60.71
2023-02-08T18:39:13.970Z,60.96
2023-02-08T18:44:16.614Z,60.93
2023-02-08T18:49:18.272Z,61.22
2023-02-08T18:54:19.977Z,60.94
2023-02-08T18:59:21.858Z,61.25
2023-02-08T19:04:23.546Z,61.70
2023-02-08T19:09:25.237Z,61.98
2023-02-08T19:14:26.834Z,61.73
2023-02-08T19:19:28.482Z,61.90
2023-02-08T19:24:30.338Z,62.18
2023-02-08T19:29:33.467Z,62.43
2023-02-08T19:34:35.071Z,62.57
2023-02-08T19:39:36.876Z,62.55
2023-02-08T19:44:38.513Z,62.82
2023-02-08T19:49:40.136Z,62.91
2023-02-08T19:54:41.818Z,62.59
2023-02-08T19:59:43.852Z,62.53
2023-02-08T20:04:45.687Z,62.45
2023-02-08T20:09:47.334Z,62.51
2023-02-08T20:14:48.965Z,62.45
2023-02-08T20:19:52.393Z,61.89
2023-02-08T20:24:54.092Z,62.33
2023-02-08T20:29:56.063Z,62.06
2023-02-08T20:34:59.836Z,62.00
2023-02-08T20:40:02.602Z,62.20
2023-02-08T20:45:06.057Z,61.95
2023-02-08T20:50:18.156Z,62.31
2023-02-08T20:55:21.380Z,62.48
2023-02-08T21:00:27.960Z,62.25
2023-02-08T21:05:35.152Z,62.65
2023-02-08T21:10:37.138Z,62.32
2023-02-08T21:15:43.155Z,62.55
2023-02-08T21:20:45.036Z,62.60
2023-02-08T21:25:46.871Z,62.79
2023-02-08T21:31:11.079Z,62.47
2023-02-08T21:36:18.745Z,62.46
2023-02-08T21:41:23.770Z,62.85
2023-02-08T21:46:27.712Z,62.82
2023-02-08T21:51:50.427Z,63.24
2023-02-08T21:56:52.294Z,63.73
2023-02-08T22:01:54.049Z,64.18
2023-02-08T22:06:55.870Z,64.02
2023-02-08T22:11:57.667Z,63.51
2023-02-08T22:16:59.427Z,63.62
2023-02-08T22:22:02.298Z,63.90
2023-02-08T22:27:05.560Z,63.65
2023-02-08T22:32:09.811Z,64.16
2023-02-08T22:37:12.154Z,64.03
2023-02-08T22:42:14.656Z,64.02
2023-02-08T22:47:17.187Z,64.42
2023-02-08T22:52:19.684Z,64.25
2023-02-08T22:57:22.057Z,64.41
2023-02-08T23:02:24.437Z,64.73
2023-02-08T23:07:27.201Z,65.27
2023-02-08T23:12:29.718Z,64.90
2023-02-08T23:17:31.505Z,65.17
2023-02-08T23:22:37.541Z,64.81
2023-02-08T23:27:39.427Z,65.20
2023-02-08T23:32:41.646Z,64.63
2023-02-08T23:37:45.118Z,64.41
2023-02-08T23:42:47.281Z,65.12
2023-02-08T23:47:49.085Z,64.95
2023-02-08T23:52:50.925Z,64.66
2023-02-08T23:57:52.630Z,64.89
